Time;durP1;ratioP1;P1;durP2;ratioP2;P2;SDS_P1;SDS_P2;PMS_P1;PMS_P2;Temp;Humidity;BMP_temperature;BMP_pressure;BME280_temperature;BME280_humidity;BME280_pressure;Samples;Min_cycle;Max_cycle;Signal;HPM_P1;HPM_P2
2024/01/11 04:08:24;;;;;;;21.02;14.07;;;21.10;25.70;;;;;;5270275;23;20054;-59
2024/01/11 04:10:52;;;;;;;19.20;13.40;;;21.00;25.70;;;;;;4985827;28;20406;-59
2024/01/11 04:13:19;;;;;;;18.80;13.10;;;21.00;25.60;;;;;;4983043;28;20051;-59
2024/01/11 04:15:46;;;;;;;21.77;13.45;;;21.00;25.60;;;;;;4968485;28;20058;-58
2024/01/11 04:18:13;;;;;;;21.30;14.32;;;20.90;25.60;;;;;;4969628;28;20054;-59
2024/01/11 04:20:40;;;;;;;21.00;13.93;;;20.90;25.60;;;;;;4969394;28;20053;-59
2024/01/11 04:23:08;;;;;;;19.65;13.02;;;20.80;25.50;;;;;;4964592;28;20065;-58
2024/01/11 04:25:36;;;;;;;20.63;13.27;;;20.80;25.50;;;;;;4967363;28;20514;-57
2024/01/11 04:28:04;;;;;;;21.23;13.45;;;20.80;25.50;;;;;;4967084;28;20050;-59
2024/01/11 04:30:32;;;;;;;23.02;13.50;;;20.70;25.50;;;;;;4969131;28;20050;-59
2024/01/11 04:32:59;;;;;;;18.85;13.13;;;20.70;25.50;;;;;;4968911;28;20054;-58
2024/01/11 04:35:26;;;;;;;19.23;13.68;;;20.70;25.50;;;;;;4966320;28;20063;-59
2024/01/11 04:37:54;;;;;;;19.13;13.27;;;20.60;25.50;;;;;;4965650;28;20051;-58
2024/01/11 04:40:21;;;;;;;20.05;14.00;;;20.60;25.50;;;;;;4969039;28;20046;-58
2024/01/11 04:42:49;;;;;;;20.10;14.02;;;20.50;25.40;;;;;;4967632;28;20058;-58
2024/01/11 04:45:16;;;;;;;22.40;14.32;;;20.50;25.40;;;;;;4966836;28;20055;-57
2024/01/11 04:47:44;;;;;;;20.20;13.13;;;20.40;25.50;;;;;;4966520;28;20057;-57
2024/01/11 04:50:11;;;;;;;20.30;13.13;;;20.40;25.50;;;;;;4966541;28;20055;-59
2024/01/11 04:52:38;;;;;;;19.92;13.32;;;20.40;25.60;;;;;;4965992;28;20051;-58
2024/01/11 04:55:06;;;;;;;20.33;13.57;;;20.40;25.70;;;;;;4966098;28;20480;-58
2024/01/11 04:57:33;;;;;;;18.42;13.20;;;20.40;25.70;;;;;;4964137;28;20081;-58
2024/01/11 05:00:02;;;;;;;21.05;13.65;;;20.40;25.80;;;;;;4966321;28;20403;-58
2024/01/11 05:02:29;;;;;;;22.15;14.27;;;20.40;25.90;;;;;;4964856;28;20066;-58
2024/01/11 05:04:57;;;;;;;21.70;13.32;;;20.50;26.00;;;;;;4967653;28;20050;-58
2024/01/11 05:07:24;;;;;;;21.77;13.95;;;20.50;26.40;;;;;;4964859;28;20066;-58
2024/01/11 05:09:51;;;;;;;21.05;13.65;;;20.50;26.00;;;;;;4967156;28;20054;-58
2024/01/11 05:12:18;;;;;;;20.00;13.80;;;20.60;26.00;;;;;;4965168;28;20061;-55
2024/01/11 05:14:45;;;;;;;20.02;13.52;;;20.60;26.00;;;;;;4965460;28;20050;-57
2024/01/11 05:17:14;;;;;;;19.67;12.90;;;20.70;26.00;;;;;;4965405;28;20131;-59
2024/01/11 05:19:41;;;;;;;18.65;12.68;;;20.80;26.10;;;;;;4963242;28;20602;-59
2024/01/11 05:22:08;;;;;;;18.27;12.32;;;20.80;26.00;;;;;;4966027;28;20066;-58
2024/01/11 05:24:35;;;;;;;18.05;12.95;;;20.80;26.00;;;;;;4966773;28;20065;-59
2024/01/11 05:27:02;;;;;;;18.40;12.75;;;20.90;26.00;;;;;;4968426;28;20055;-59
2024/01/11 05:29:29;;;;;;;20.85;13.85;;;20.90;25.90;;;;;;4967475;28;20058;-58
2024/01/11 05:31:57;;;;;;;18.55;12.50;;;20.90;25.80;;;;;;4965747;28;20084;-58
2024/01/11 05:34:25;;;;;;;21.35;14.23;;;20.90;25.80;;;;;;4968431;28;20066;-57
2024/01/11 05:36:52;;;;;;;25.25;13.68;;;20.90;25.80;;;;;;4967621;28;20063;-59
2024/01/11 05:39:20;;;;;;;22.70;14.00;;;20.90;25.90;;;;;;4968522;28;20062;-58
2024/01/11 05:41:47;;;;;;;33.45;12.65;;;20.90;26.00;;;;;;4967932;28;20058;-58
2024/01/11 05:44:14;;;;;;;21.90;14.38;;;21.00;26.10;;;;;;4968748;28;20059;-56
2024/01/11 05:46:41;;;;;;;28.33;12.30;;;21.00;26.10;;;;;;4968395;28;20518;-59
2024/01/11 05:49:08;;;;;;;21.23;13.30;;;21.00;26.20;;;;;;4970944;28;20066;-60
2024/01/11 05:51:37;;;;;;;46.17;25.95;;;21.10;26.10;;;;;;4966758;28;20055;-56
2024/01/11 05:54:04;;;;;;;81.47;41.35;;;21.10;25.90;;;;;;4965929;28;20054;-58
2024/01/11 05:56:31;;;;;;;85.32;46.92;;;21.10;25.70;;;;;;4968984;28;20058;-58
2024/01/11 05:58:59;;;;;;;58.65;36.03;;;21.20;25.70;;;;;;4974073;28;20058;-58
2024/01/11 06:01:26;;;;;;;60.25;34.13;;;21.20;25.70;;;;;;4971878;28;20085;-58
2024/01/11 06:03:53;;;;;;;56.20;27.08;;;21.20;25.70;;;;;;4972192;28;20434;-58
2024/01/11 06:06:20;;;;;;;42.10;23.73;;;21.20;25.80;;;;;;4969313;28;20059;-56
2024/01/11 06:08:49;;;;;;;32.10;21.05;;;21.30;25.80;;;;;;4969690;28;20055;-58
2024/01/11 06:11:18;;;;;;;31.77;19.30;;;21.30;25.80;;;;;;4968251;28;20047;-57
2024/01/11 06:13:45;;;;;;;36.92;20.50;;;21.30;25.70;;;;;;4966113;28;20051;-57
2024/01/11 06:16:12;;;;;;;43.92;27.30;;;21.30;25.70;;;;;;4966024;28;20483;-56
2024/01/11 06:18:39;;;;;;;50.85;27.27;;;21.40;25.60;;;;;;4966833;28;20058;-57
2024/01/11 06:21:06;;;;;;;48.13;25.75;;;21.40;25.50;;;;;;4968669;28;20054;-57
2024/01/11 06:23:34;;;;;;;40.38;23.20;;;21.40;25.50;;;;;;4967350;28;20061;-56
2024/01/11 06:26:02;;;;;;;38.63;23.23;;;21.40;25.50;;;;;;4969169;28;20042;-56
2024/01/11 06:28:30;;;;;;;40.63;22.35;;;21.30;25.40;;;;;;4964532;28;20055;-58
2024/01/11 06:30:57;;;;;;;40.90;22.55;;;21.30;25.50;;;;;;4969404;28;20062;-53
2024/01/11 06:33:24;;;;;;;34.92;20.92;;;21.30;25.30;;;;;;4967938;28;20447;-53
2024/01/11 06:35:51;;;;;;;33.50;19.67;;;21.30;24.80;;;;;;4968353;28;20506;-56
2024/01/11 06:38:18;;;;;;;33.95;19.88;;;21.20;24.70;;;;;;4965354;28;20400;-53
2024/01/11 06:40:45;;;;;;;31.20;18.60;;;21.20;24.80;;;;;;4967462;28;20471;-54
2024/01/11 06:43:14;;;;;;;36.65;17.02;;;21.10;24.90;;;;;;4966200;28;20061;-54
2024/01/11 06:45:43;;;;;;;26.10;17.38;;;21.10;25.00;;;;;;4968153;28;20042;-55
2024/01/11 06:48:10;;;;;;;34.03;17.67;;;21.00;25.00;;;;;;4969300;28;20051;-56
2024/01/11 06:50:37;;;;;;;28.75;16.33;;;21.00;25.10;;;;;;4968406;28;20062;-55
2024/01/11 06:53:05;;;;;;;29.63;17.58;;;21.00;25.10;;;;;;4970085;28;20054;-57
2024/01/11 06:55:32;;;;;;;27.40;17.23;;;20.90;25.20;;;;;;4966117;28;20051;-52
2024/01/11 06:58:01;;;;;;;36.33;16.90;;;20.90;25.20;;;;;;4969374;28;20055;-53
2024/01/11 07:00:30;;;;;;;30.08;16.55;;;20.90;25.30;;;;;;4964695;28;20454;-57
2024/01/11 07:02:57;;;;;;;25.25;17.25;;;20.80;25.50;;;;;;4970039;28;20388;-55
2024/01/11 07:05:24;;;;;;;38.45;17.98;;;20.80;25.20;;;;;;4970041;28;20062;-57
2024/01/11 07:07:51;;;;;;;38.40;18.17;;;20.80;24.90;;;;;;4964721;28;20059;-56
2024/01/11 07:10:19;;;;;;;32.15;17.70;;;20.80;25.10;;;;;;4968589;28;20055;-56
2024/01/11 07:12:47;;;;;;;32.72;18.10;;;20.80;24.90;;;;;;4967940;28;20058;-55
2024/01/11 07:15:15;;;;;;;34.53;18.95;;;20.80;24.80;;;;;;4967169;28;20058;-53
2024/01/11 07:17:43;;;;;;;31.55;16.95;;;20.80;24.80;;;;;;4966404;28;20066;-57
2024/01/11 07:20:13;;;;;;;32.80;17.45;;;20.80;24.90;;;;;;4931642;28;20044;-53
2024/01/11 07:22:40;;;;;;;23.33;15.57;;;20.80;24.90;;;;;;4929814;29;20059;-56
2024/01/11 07:25:08;;;;;;;23.13;15.50;;;20.80;24.90;;;;;;4929554;29;20063;-57
2024/01/11 07:27:36;;;;;;;23.98;15.73;;;20.80;25.00;;;;;;4928916;29;20063;-55
2024/01/11 07:30:06;;;;;;;26.08;15.40;;;20.80;25.00;;;;;;4932442;29;20062;-56
2024/01/11 07:32:33;;;;;;;26.23;16.95;;;20.80;25.10;;;;;;4949551;29;20522;-57
2024/01/11 07:35:01;;;;;;;28.02;15.82;;;20.80;25.20;;;;;;4948491;29;20055;-57
2024/01/11 07:37:28;;;;;;;26.92;14.60;;;20.80;25.30;;;;;;4942758;29;20083;-58
2024/01/11 07:39:55;;;;;;;28.73;15.57;;;20.90;25.40;;;;;;4947679;29;20066;-58
2024/01/11 07:42:23;;;;;;;24.05;15.70;;;20.90;25.40;;;;;;4944429;29;20522;-56
2024/01/11 07:44:50;;;;;;;23.15;15.00;;;20.90;25.40;;;;;;4947880;29;20476;-57
2024/01/11 07:47:17;;;;;;;21.13;15.10;;;20.90;25.40;;;;;;4946229;29;20058;-57
2024/01/11 07:49:44;;;;;;;21.83;15.05;;;20.90;25.40;;;;;;4948049;29;20062;-58
2024/01/11 07:52:13;;;;;;;24.63;16.42;;;20.90;25.40;;;;;;4947480;29;20476;-56
2024/01/11 07:54:41;;;;;;;25.77;16.00;;;21.00;25.40;;;;;;4944250;29;20520;-58
2024/01/11 07:57:09;;;;;;;24.48;16.02;;;20.90;25.70;;;;;;4947759;29;20078;-52
2024/01/11 07:59:37;;;;;;;24.30;16.02;;;21.00;25.40;;;;;;4949345;29;20047;-55
2024/01/11 08:02:05;;;;;;;24.70;16.38;;;21.00;25.30;;;;;;4947971;29;20061;-57
2024/01/11 08:04:33;;;;;;;23.90;16.45;;;20.90;25.30;;;;;;4947999;28;20055;-54
2024/01/11 08:07:01;;;;;;;22.38;15.32;;;20.90;25.30;;;;;;4944731;29;20066;-54
2024/01/11 08:09:31;;;;;;;23.27;15.27;;;20.90;25.30;;;;;;4945219;29;20051;-56
2024/01/11 08:11:58;;;;;;;21.98;14.90;;;20.80;25.20;;;;;;4946275;29;20051;-54
2024/01/11 08:14:26;;;;;;;26.30;16.33;;;20.80;25.20;;;;;;4946168;29;20526;-56
2024/01/11 08:16:53;;;;;;;23.50;15.48;;;20.80;25.20;;;;;;4944528;29;20047;-56
2024/01/11 08:19:21;;;;;;;23.83;16.10;;;20.70;25.20;;;;;;4946948;29;20319;-57
2024/01/11 08:21:48;;;;;;;24.75;16.27;;;20.70;25.20;;;;;;4946387;29;20062;-57
2024/01/11 08:24:17;;;;;;;23.67;15.63;;;20.70;25.20;;;;;;4946445;29;20058;-55
2024/01/11 08:26:46;;;;;;;23.90;14.93;;;20.60;25.20;;;;;;4945373;29;20400;-53
2024/01/11 08:29:14;;;;;;;21.33;15.20;;;20.60;25.30;;;;;;4940489;29;20055;-54
2024/01/11 08:31:43;;;;;;;24.10;15.60;;;20.50;25.20;;;;;;4945944;29;20055;-53
2024/01/11 08:34:11;;;;;;;22.95;15.95;;;20.50;25.20;;;;;;4946201;29;20062;-56
2024/01/11 08:36:39;;;;;;;23.95;15.05;;;20.40;25.20;;;;;;4943277;29;20066;-56
2024/01/11 08:39:07;;;;;;;26.35;16.10;;;20.40;25.20;;;;;;4946096;29;20051;-58
2024/01/11 08:41:37;;;;;;;23.48;16.13;;;20.30;25.20;;;;;;4942143;29;20062;-59
2024/01/11 08:44:06;;;;;;;24.45;16.17;;;20.30;25.20;;;;;;4944072;29;20339;-59
2024/01/11 08:46:34;;;;;;;23.15;15.07;;;20.20;25.30;;;;;;4945131;29;20051;-59
2024/01/11 08:49:03;;;;;;;30.50;17.85;;;20.20;25.50;;;;;;4946427;29;20050;-59
2024/01/11 08:51:32;;;;;;;29.45;18.08;;;20.20;25.40;;;;;;4945287;29;20050;-56
2024/01/11 08:53:59;;;;;;;31.17;16.95;;;20.20;25.20;;;;;;4946849;29;20063;-56
2024/01/11 08:56:28;;;;;;;23.85;15.35;;;20.10;25.20;;;;;;4946391;28;20059;-53
2024/01/11 08:58:55;;;;;;;24.20;15.63;;;20.20;25.40;;;;;;4944912;29;20495;-59
2024/01/11 09:01:24;;;;;;;22.17;14.73;;;20.20;25.50;;;;;;4944520;29;20059;-59
2024/01/11 09:03:52;;;;;;;22.33;14.98;;;20.20;25.70;;;;;;4945171;29;20062;-58
2024/01/11 09:06:19;;;;;;;22.77;14.50;;;20.20;25.70;;;;;;4943171;29;20507;-59
2024/01/11 09:12:08;;;;;;;22.42;14.73;;;20.30;25.90;;;;;;4945609;28;20400;-59
2024/01/11 09:14:35;;;;;;;25.77;15.02;;;20.40;25.80;;;;;;4945747;29;20055;-55
2024/01/11 09:17:06;;;;;;;33.17;17.05;;;20.40;25.90;;;;;;4945218;29;20047;-57
2024/01/11 09:19:33;;;;;;;40.00;15.90;;;20.40;25.90;;;;;;4946851;29;20071;-58
2024/01/11 09:22:00;;;;;;;39.05;19.00;;;20.50;26.00;;;;;;4945598;29;20059;-54
2024/01/11 09:24:28;;;;;;;28.70;18.20;;;20.50;25.70;;;;;;4944170;29;20062;-59
2024/01/11 09:26:55;;;;;;;31.20;17.10;;;20.60;25.50;;;;;;4944752;29;20062;-59
2024/01/11 09:29:22;;;;;;;32.22;15.73;;;20.60;25.50;;;;;;4945759;29;20066;-58
2024/01/11 09:31:50;;;;;;;32.08;15.95;;;20.70;25.70;;;;;;4943835;29;20060;-54
2024/01/11 09:34:18;;;;;;;33.80;16.42;;;20.70;25.70;;;;;;4947206;29;20447;-54
2024/01/11 09:36:46;;;;;;;30.23;15.73;;;20.70;25.80;;;;;;4944282;29;20055;-57
2024/01/11 09:39:14;;;;;;;25.20;15.88;;;20.70;25.80;;;;;;4948914;29;20062;-59
2024/01/11 09:41:48;;;;;;;25.30;15.85;;;20.80;25.80;;;;;;4950088;29;20411;-59
2024/01/11 09:44:16;;;;;;;23.80;15.32;;;20.80;25.80;;;;;;4944963;29;20059;-59
2024/01/11 09:46:43;;;;;;;25.20;16.02;;;20.90;25.80;;;;;;4943362;29;20460;-59
2024/01/11 09:49:12;;;;;;;26.90;16.02;;;21.00;25.80;;;;;;4943042;29;20415;-54
2024/01/11 09:51:45;;;;;;;25.63;16.55;;;20.90;25.80;;;;;;4940804;29;20055;-56
2024/01/11 09:54:12;;;;;;;23.33;15.25;;;21.00;25.80;;;;;;4948195;29;20396;-56
2024/01/11 14:58:49;;;;;;;31.23;18.05;;;20.80;26.30;;;;;;4928246;29;20043;-57
2024/01/11 15:01:16;;;;;;;30.17;18.88;;;20.80;26.40;;;;;;4949845;28;20055;-57
2024/01/11 15:03:43;;;;;;;33.35;19.33;;;20.80;26.40;;;;;;4952171;28;20051;-58
2024/01/11 15:06:10;;;;;;;31.48;19.35;;;20.80;26.40;;;;;;4953713;28;20059;-59
2024/01/11 15:08:37;;;;;;;38.45;20.48;;;20.80;26.40;;;;;;4954821;28;20517;-59
2024/01/11 15:11:05;;;;;;;31.38;19.83;;;20.70;26.40;;;;;;4957783;28;20051;-58
2024/01/11 15:13:33;;;;;;;35.17;21.65;;;20.70;26.40;;;;;;4957157;28;20059;-59
2024/01/11 15:16:02;;;;;;;31.55;20.67;;;20.70;26.40;;;;;;4965652;28;20077;-57
2024/01/11 15:18:29;;;;;;;100.75;60.60;;;20.70;26.30;;;;;;4967482;28;20051;-56
2024/01/11 15:20:57;;;;;;;104.15;61.38;;;20.70;26.30;;;;;;4966471;28;20526;-58
2024/01/11 15:23:24;;;;;;;63.00;37.47;;;20.60;26.20;;;;;;4967051;28;20066;-58
2024/01/11 15:25:52;;;;;;;41.40;27.40;;;20.50;26.20;;;;;;4964023;28;20058;-57
2024/01/11 15:28:19;;;;;;;46.50;28.85;;;20.50;26.20;;;;;;4965817;28;20046;-54
2024/01/11 15:30:46;;;;;;;51.88;29.52;;;20.50;26.40;;;;;;4967371;28;20046;-57
2024/01/11 15:33:15;;;;;;;60.75;29.88;;;20.50;26.60;;;;;;4965033;28;20055;-56
2024/01/11 15:35:42;;;;;;;60.60;28.42;;;20.50;26.70;;;;;;4970169;28;20062;-57
2024/01/11 15:38:12;;;;;;;47.30;25.92;;;20.60;26.70;;;;;;4965720;28;20058;-56
2024/01/11 15:50:48;;;;;;;37.45;22.75;;;20.70;26.80;;;;;;5120650;23;20062;-55
2024/01/11 15:53:15;;;;;;;34.85;23.25;;;20.80;26.90;;;;;;4968708;28;20095;-55
2024/01/11 15:55:42;;;;;;;69.05;41.88;;;20.80;26.80;;;;;;4963055;28;20058;-55
2024/01/11 15:58:09;;;;;;;91.88;53.33;;;20.80;26.60;;;;;;4965202;28;20054;-53
2024/01/11 16:00:37;;;;;;;56.47;33.97;;;20.90;26.60;;;;;;4968447;28;20059;-56
2024/01/11 16:03:06;;;;;;;48.95;30.23;;;20.90;26.60;;;;;;4965234;28;20055;-59
2024/01/11 16:08:57;;;;;;;42.10;24.73;;;21.00;26.90;;;;;;4961468;28;20041;-56
2024/01/11 16:11:25;;;;;;;37.88;24.73;;;21.00;26.80;;;;;;4963778;28;20257;-58
2024/01/11 16:13:52;;;;;;;39.08;24.67;;;21.10;26.80;;;;;;4962425;28;20071;-56
2024/01/11 16:16:19;;;;;;;44.58;24.00;;;21.10;26.80;;;;;;4966324;28;20059;-57
2024/01/11 16:18:46;;;;;;;37.90;22.90;;;21.10;26.80;;;;;;4966186;28;20055;-59
2024/01/11 16:21:13;;;;;;;37.30;23.77;;;21.20;27.00;;;;;;4966853;28;20058;-58
2024/01/11 16:23:41;;;;;;;34.85;22.27;;;21.20;26.90;;;;;;4968857;28;20054;-56
2024/01/11 16:26:10;;;;;;;37.40;22.38;;;21.30;26.80;;;;;;4963406;28;20051;-56
2024/01/11 16:28:37;;;;;;;41.25;21.50;;;21.40;26.70;;;;;;4966873;28;20047;-58
2024/01/11 16:31:04;;;;;;;35.53;22.55;;;21.40;26.60;;;;;;4969628;28;20057;-58
2024/01/11 16:33:32;;;;;;;37.80;22.02;;;21.40;26.50;;;;;;4966459;28;20055;-58
2024/01/11 16:35:59;;;;;;;33.10;22.35;;;21.40;26.50;;;;;;4968768;28;20062;-56
2024/01/11 16:38:26;;;;;;;33.83;22.58;;;21.50;26.40;;;;;;4962499;28;20066;-59
2024/01/11 16:40:54;;;;;;;37.30;22.55;;;21.50;26.40;;;;;;4967727;28;20055;-59
2024/01/11 16:43:23;;;;;;;33.10;22.38;;;21.40;26.30;;;;;;4963481;28;20418;-57
2024/01/11 16:45:50;;;;;;;36.83;23.73;;;21.40;26.20;;;;;;4969543;28;20054;-58
2024/01/11 16:48:17;;;;;;;35.08;21.35;;;21.40;26.20;;;;;;4965549;28;20057;-57
2024/01/11 16:50:46;;;;;;;32.83;22.40;;;21.40;26.20;;;;;;4968826;28;20499;-58
2024/01/11 16:53:14;;;;;;;37.75;22.00;;;21.40;26.20;;;;;;4962759;28;20051;-60
2024/01/11 16:55:41;;;;;;;30.52;20.42;;;21.40;26.20;;;;;;4968728;28;20070;-56
2024/01/11 16:58:10;;;;;;;41.05;21.55;;;21.30;26.30;;;;;;4957732;28;20403;-60
2024/01/11 17:00:39;;;;;;;35.53;22.92;;;21.30;26.30;;;;;;4954725;28;20058;-58
2024/01/11 17:03:07;;;;;;;33.67;22.58;;;21.30;26.30;;;;;;4967062;28;20061;-58
2024/01/11 17:05:35;;;;;;;38.65;23.55;;;21.20;26.30;;;;;;4966781;28;20082;-57
2024/01/11 17:08:04;;;;;;;34.13;23.00;;;21.20;26.30;;;;;;4966402;28;20059;-56
2024/01/11 17:17:18;;;;;;;31.13;19.98;;;21.10;26.00;;;;;;4975418;28;20054;-59
2024/01/11 17:19:53;;;;;;;35.58;20.83;;;21.00;26.20;;;;;;4969798;28;20059;-56
2024/01/11 17:46:27;;;;;;;29.45;18.30;;;21.20;27.10;;;;;;4961187;29;20403;-60
2024/01/11 17:48:54;;;;;;;30.45;19.05;;;21.20;27.00;;;;;;4969518;28;20058;-59
2024/01/11 17:51:22;;;;;;;28.27;17.98;;;21.20;27.00;;;;;;4973885;28;20062;-58
2024/01/11 17:53:51;;;;;;;27.67;18.63;;;21.30;27.00;;;;;;4970188;28;20062;-55
2024/01/11 17:56:21;;;;;;;29.10;17.85;;;21.40;26.90;;;;;;4965716;28;20058;-59
2024/01/11 17:58:48;;;;;;;30.13;17.40;;;21.40;26.90;;;;;;4971564;28;20487;-58
2024/01/11 18:01:20;;;;;;;28.77;17.58;;;21.40;26.80;;;;;;4969785;28;20053;-59
2024/01/11 18:03:49;;;;;;;26.33;17.65;;;21.50;26.70;;;;;;4970452;28;20043;-53
2024/01/11 18:06:18;;;;;;;27.05;17.98;;;21.50;26.60;;;;;;4969422;28;20535;-55
2024/01/11 18:08:46;;;;;;;31.50;18.13;;;21.50;27.00;;;;;;4970182;28;20059;-57
2024/01/11 18:11:14;;;;;;;28.42;18.13;;;21.60;26.50;;;;;;4969730;28;20054;-56
2024/01/11 18:13:41;;;;;;;32.45;19.13;;;21.50;26.40;;;;;;4967402;28;20074;-56
2024/01/11 18:16:08;;;;;;;29.58;17.92;;;21.60;26.40;;;;;;4970033;28;20054;-57
2024/01/11 18:18:36;;;;;;;27.95;18.08;;;21.60;26.40;;;;;;4964284;28;20057;-55
2024/01/11 18:21:05;;;;;;;25.00;18.85;;;21.50;26.30;;;;;;4972719;28;20057;-55
2024/01/11 18:23:32;;;;;;;30.60;18.90;;;21.50;26.30;;;;;;4969820;28;20050;-55
2024/01/11 18:26:00;;;;;;;28.38;18.42;;;21.50;26.20;;;;;;4963910;28;20525;-57
2024/01/11 18:28:27;;;;;;;27.20;17.98;;;21.50;26.20;;;;;;4965178;28;20055;-52
2024/01/11 18:30:54;;;;;;;27.67;18.17;;;21.40;26.20;;;;;;4967714;28;20066;-57
2024/01/11 18:33:23;;;;;;;27.67;18.27;;;21.40;26.10;;;;;;4967039;28;20051;-57
2024/01/11 18:35:50;;;;;;;28.27;18.25;;;21.40;26.10;;;;;;4961807;28;20065;-57
2024/01/11 18:38:21;;;;;;;27.70;18.58;;;21.40;26.10;;;;;;4964241;28;20055;-56
2024/01/11 18:40:48;;;;;;;26.25;18.40;;;21.30;26.00;;;;;;4966570;28;20055;-57
2024/01/11 18:43:17;;;;;;;31.17;18.35;;;21.30;26.10;;;;;;4965793;28;20058;-54
2024/01/11 18:45:44;;;;;;;30.58;19.67;;;21.20;26.10;;;;;;4965001;28;20050;-54
2024/01/11 18:48:12;;;;;;;30.75;19.63;;;21.20;26.10;;;;;;4966559;28;20062;-53
2024/01/11 18:50:39;;;;;;;62.40;33.05;;;21.10;26.10;;;;;;4965520;28;20051;-57
2024/01/11 18:53:07;;;;;;;239.35;101.15;;;21.10;26.20;;;;;;4941020;28;20542;-57
2024/01/11 18:55:36;;;;;;;236.88;108.47;;;21.10;26.20;;;;;;4940266;29;20192;-57
2024/01/11 18:58:04;;;;;;;225.32;108.47;;;21.10;26.30;;;;;;4944797;29;20055;-57
2024/01/11 19:00:31;;;;;;;186.15;94.38;;;21.00;26.30;;;;;;4944548;28;20389;-57
2024/01/11 19:02:59;;;;;;;170.68;83.80;;;21.00;26.30;;;;;;4928842;28;20056;-56
2024/01/11 19:05:26;;;;;;;164.40;80.03;;;21.10;26.50;;;;;;4934736;29;20507;-56
2024/01/11 19:07:53;;;;;;;149.77;75.15;;;21.10;26.60;;;;;;4948394;29;20518;-58
2024/01/11 19:10:21;;;;;;;138.93;65.35;;;21.10;26.60;;;;;;4947006;29;20419;-57
2024/01/11 19:12:50;;;;;;;126.20;61.35;;;21.20;26.70;;;;;;4948015;29;20055;-58
2024/01/11 19:15:17;;;;;;;116.30;58.35;;;21.20;26.70;;;;;;4946276;29;20416;-58
2024/01/11 19:17:44;;;;;;;99.47;53.08;;;21.20;26.70;;;;;;4945242;29;20058;-57
2024/01/11 19:20:13;;;;;;;95.93;49.85;;;21.20;26.70;;;;;;4951523;28;20488;-56
2024/01/11 19:22:40;;;;;;;85.32;44.78;;;21.30;27.10;;;;;;4947725;29;20059;-57
2024/01/11 19:25:08;;;;;;;80.65;43.15;;;21.30;26.70;;;;;;4944593;29;20059;-56
2024/01/11 19:27:36;;;;;;;67.68;38.40;;;21.30;26.70;;;;;;4945655;29;20055;-55
2024/01/11 19:30:07;;;;;;;68.57;35.97;;;21.40;26.80;;;;;;4949344;29;20472;-50
2024/01/11 19:32:36;;;;;;;54.58;32.97;;;21.40;26.70;;;;;;4944808;29;20051;-52
2024/01/11 19:35:03;;;;;;;58.78;30.95;;;21.40;26.60;;;;;;4948411;29;20051;-56
2024/01/11 19:37:31;;;;;;;51.05;28.45;;;21.50;26.60;;;;;;4945652;29;20409;-55
2024/01/11 19:39:58;;;;;;;48.70;27.58;;;21.50;26.50;;;;;;4945279;28;20550;-56
2024/01/11 19:42:25;;;;;;;41.05;25.27;;;21.50;26.50;;;;;;4947334;29;20062;-55
2024/01/11 19:44:52;;;;;;;40.42;23.70;;;21.60;26.80;;;;;;4947130;29;20420;-54
2024/01/11 19:47:21;;;;;;;38.60;23.98;;;21.60;26.40;;;;;;4944663;29;20255;-56
2024/01/11 19:49:48;;;;;;;37.65;23.50;;;21.60;26.30;;;;;;4943251;29;20054;-54
2024/01/11 19:52:15;;;;;;;44.40;23.98;;;21.60;26.40;;;;;;4945701;29;20063;-51
2024/01/11 19:54:42;;;;;;;41.20;22.50;;;21.60;26.30;;;;;;4941740;29;20067;-56
2024/01/11 19:57:10;;;;;;;42.03;22.63;;;21.50;26.30;;;;;;4943736;29;20066;-53
2024/01/11 19:59:37;;;;;;;33.53;19.65;;;21.50;26.30;;;;;;4946592;29;20055;-51
2024/01/11 20:02:04;;;;;;;30.88;18.50;;;21.50;26.20;;;;;;4945152;29;20051;-52
2024/01/11 20:04:33;;;;;;;31.33;19.83;;;21.40;26.10;;;;;;4943540;29;20056;-55
2024/01/11 20:07:01;;;;;;;28.75;18.10;;;21.40;26.10;;;;;;4945190;29;20055;-52
2024/01/11 20:09:29;;;;;;;30.33;18.45;;;21.40;26.10;;;;;;4946662;29;20384;-54
2024/01/11 20:11:56;;;;;;;29.08;18.10;;;21.40;26.10;;;;;;4945231;29;20527;-56
2024/01/11 20:14:23;;;;;;;28.55;17.17;;;21.30;26.10;;;;;;4943359;29;20062;-54
2024/01/11 20:16:51;;;;;;;26.75;17.10;;;21.30;26.10;;;;;;4946172;29;20067;-51
2024/01/11 20:19:18;;;;;;;28.13;16.00;;;21.20;26.00;;;;;;4946167;29;20062;-47
2024/01/11 20:21:47;;;;;;;23.83;16.25;;;21.20;26.00;;;;;;4946472;29;20055;-50
2024/01/11 20:24:14;;;;;;;25.67;16.73;;;21.10;25.90;;;;;;4945797;29;20051;-49
2024/01/11 20:26:42;;;;;;;25.60;16.50;;;21.10;26.10;;;;;;4944493;29;20059;-53
2024/01/11 20:29:10;;;;;;;24.42;15.15;;;21.00;26.00;;;;;;4944222;29;20415;-46
2024/01/11 20:31:37;;;;;;;24.58;14.73;;;21.00;26.00;;;;;;4945476;29;20415;-51
2024/01/11 20:34:07;;;;;;;24.60;15.25;;;21.00;26.10;;;;;;4945316;29;20065;-50
2024/01/11 20:36:35;;;;;;;21.75;14.82;;;21.00;26.20;;;;;;4947953;29;20059;-52
2024/01/11 20:39:04;;;;;;;22.73;13.60;;;21.00;26.30;;;;;;4942887;29;21003;-52
2024/01/11 20:41:31;;;;;;;21.30;13.77;;;21.00;26.40;;;;;;4947141;28;20055;-57
2024/01/11 20:43:58;;;;;;;23.83;14.18;;;21.00;26.40;;;;;;4943975;29;20051;-52
2024/01/11 20:46:26;;;;;;;20.63;13.73;;;21.00;26.50;;;;;;4947353;29;20082;-53
2024/01/11 20:48:53;;;;;;;25.98;13.20;;;21.00;26.50;;;;;;4944849;29;20062;-57
2024/01/11 20:51:22;;;;;;;21.45;13.65;;;21.10;26.50;;;;;;4949056;29;20411;-53
2024/01/11 20:53:54;;;;;;;22.00;12.68;;;21.10;26.50;;;;;;4946096;28;20059;-53
2024/01/11 20:56:24;;;;;;;20.92;13.43;;;21.10;26.50;;;;;;4944395;29;20055;-52
2024/01/11 20:58:51;;;;;;;21.40;13.52;;;21.20;26.50;;;;;;4941501;29;20055;-54
2024/01/11 21:01:19;;;;;;;20.02;13.15;;;21.20;26.50;;;;;;4943042;29;20048;-54
2024/01/11 21:03:46;;;;;;;19.90;13.30;;;21.30;26.50;;;;;;4944499;29;20427;-55
2024/01/11 21:06:15;;;;;;;18.15;12.07;;;21.30;26.60;;;;;;4947617;28;20522;-55
2024/01/11 21:08:42;;;;;;;19.88;12.77;;;21.30;26.60;;;;;;4946061;29;20564;-55
2024/01/11 21:11:09;;;;;;;19.65;12.95;;;21.30;26.50;;;;;;4949474;28;20411;-55
2024/01/11 21:13:38;;;;;;;20.55;13.30;;;21.40;26.50;;;;;;4946789;29;20051;-54
2024/01/11 21:16:06;;;;;;;20.45;13.43;;;21.40;26.50;;;;;;4943824;28;21441;-55
2024/01/11 21:18:33;;;;;;;17.98;12.23;;;21.40;26.50;;;;;;4945862;29;20060;-54
2024/01/11 21:21:01;;;;;;;19.38;12.52;;;21.40;26.40;;;;;;4946290;29;21354;-52
2024/01/11 21:23:28;;;;;;;16.58;12.02;;;21.40;26.40;;;;;;4941911;29;20051;-54
2024/01/11 21:25:56;;;;;;;17.55;12.68;;;21.40;26.40;;;;;;4944987;29;20062;-54
2024/01/11 21:28:23;;;;;;;18.67;12.85;;;21.40;26.40;;;;;;4945232;29;20403;-54
2024/01/11 21:30:51;;;;;;;19.25;12.98;;;21.40;26.30;;;;;;4947918;29;20062;-54
2024/01/11 21:33:18;;;;;;;17.48;12.77;;;21.40;26.30;;;;;;4946398;29;20488;-52
2024/01/11 21:35:46;;;;;;;19.38;13.23;;;21.40;26.30;;;;;;4944633;29;20411;-55
2024/01/11 21:38:14;;;;;;;20.20;13.07;;;21.40;26.30;;;;;;4944280;29;20419;-55
2024/01/11 21:40:41;;;;;;;21.45;13.13;;;21.30;26.20;;;;;;4943556;29;20047;-53
2024/01/11 21:43:09;;;;;;;21.15;13.35;;;21.30;26.30;;;;;;4944534;29;20062;-54
2024/01/11 21:45:36;;;;;;;20.15;13.27;;;21.30;26.20;;;;;;4946038;29;20404;-52
2024/01/11 21:48:05;;;;;;;18.25;12.77;;;21.20;26.20;;;;;;4946282;29;20878;-55
2024/01/11 21:50:33;;;;;;;17.17;12.18;;;21.20;26.20;;;;;;4942826;28;20059;-55
2024/01/11 21:53:01;;;;;;;17.80;12.15;;;21.10;26.20;;;;;;4944368;29;20058;-53
2024/01/11 21:55:30;;;;;;;19.45;13.48;;;21.10;26.20;;;;;;4944935;29;20106;-54
2024/01/11 21:57:57;;;;;;;20.75;13.10;;;21.00;26.20;;;;;;4947196;29;20062;-54
2024/01/11 22:00:24;;;;;;;19.60;12.95;;;21.00;26.30;;;;;;4945121;29;20411;-54
2024/01/11 22:02:52;;;;;;;18.63;13.15;;;21.00;26.30;;;;;;4941628;29;20062;-52
2024/01/11 22:05:20;;;;;;;18.60;12.73;;;21.00;26.40;;;;;;4945447;28;20432;-55
2024/01/11 22:07:48;;;;;;;18.83;12.40;;;21.00;26.40;;;;;;4949515;28;20412;-55
2024/01/11 22:10:16;;;;;;;18.40;12.02;;;21.00;26.50;;;;;;4948992;29;20055;-55
2024/01/11 22:12:43;;;;;;;17.30;11.43;;;21.00;26.50;;;;;;4949343;29;20055;-52
2024/01/11 22:15:10;;;;;;;16.25;11.48;;;21.00;26.60;;;;;;4947300;29;20055;-52
2024/01/11 22:17:38;;;;;;;19.23;12.65;;;21.10;26.60;;;;;;4946421;29;20078;-52
2024/01/11 22:20:06;;;;;;;16.60;11.65;;;21.00;26.60;;;;;;4947730;29;20066;-52
2024/01/11 22:22:35;;;;;;;16.92;11.70;;;21.10;26.60;;;;;;4946684;29;20055;-54
2024/01/11 22:25:03;;;;;;;17.02;11.45;;;21.10;26.60;;;;;;4947792;29;20055;-52